sensor_id;sensor_type;location;lat;lon;timestamp;temperature;humidity
59999;DHT22;45859;51.378;6.736;2022-11-11T00:01:30;8.80;99.90
59999;DHT22;45859;51.378;6.736;2022-11-11T00:03:55;8.70;99.90
59999;DHT22;45859;51.378;6.736;2022-11-11T00:06:21;8.90;99.90
59999;DHT22;45859;51.378;6.736;2022-11-11T00:08:47;8.70;99.90
59999;DHT22;45859;51.378;6.736;2022-11-11T00:11:14;8.70;99.90
59999;DHT22;45859;51.378;6.736;2022-11-11T00:13:40;8.70;99.90
59999;DHT22;45859;51.378;6.736;2022-11-11T00:16:08;9.20;99.90
59999;DHT22;45859;51.378;6.736;2022-11-11T00:18:34;8.80;99.90
59999;DHT22;45859;51.378;6.736;2022-11-11T00:21:18;8.70;99.90
59999;DHT22;45859;51.378;6.736;2022-11-11T00:24:19;8.70;99.90
59999;DHT22;45859;51.378;6.736;2022-11-11T00:27:03;8.80;99.90
59999;DHT22;45859;51.378;6.736;2022-11-11T00:29:30;8.70;99.90
59999;DHT22;45859;51.378;6.736;2022-11-11T00:31:55;8.80;99.90
59999;DHT22;45859;51.378;6.736;2022-11-11T00:34:40;8.70;99.90
59999;DHT22;45859;51.378;6.736;2022-11-11T00:37:25;8.70;99.90
59999;DHT22;45859;51.378;6.736;2022-11-11T00:39:51;8.70;99.90
59999;DHT22;45859;51.378;6.736;2022-11-11T00:42:16;8.80;99.90
59999;DHT22;45859;51.378;6.736;2022-11-11T00:44:42;9.50;99.90
59999;DHT22;45859;51.378;6.736;2022-11-11T00:47:08;8.70;99.90
59999;DHT22;45859;51.378;6.736;2022-11-11T00:49:53;9.10;99.90
59999;DHT22;45859;51.378;6.736;2022-11-11T00:52:37;8.70;99.90
59999;DHT22;45859;51.378;6.736;2022-11-11T00:55:03;8.70;99.90
59999;DHT22;45859;51.378;6.736;2022-11-11T00:57:28;8.60;99.90
59999;DHT22;45859;51.378;6.736;2022-11-11T00:59:54;8.50;99.90
59999;DHT22;45859;51.378;6.736;2022-11-11T01:02:19;8.50;99.90
59999;DHT22;45859;51.378;6.736;2022-11-11T01:04:45;8.50;99.90
59999;DHT22;45859;51.378;6.736;2022-11-11T01:07:11;8.50;99.90
59999;DHT22;45859;51.378;6.736;2022-11-11T01:09:36;8.40;99.90
59999;DHT22;45859;51.378;6.736;2022-11-11T01:12:02;8.40;99.90
59999;DHT22;45859;51.378;6.736;2022-11-11T01:14:29;8.40;99.90
59999;DHT22;45859;51.378;6.736;2022-11-11T01:16:55;8.40;99.90
59999;DHT22;45859;51.378;6.736;2022-11-11T01:19:20;8.30;99.90
59999;DHT22;45859;51.378;6.736;2022-11-11T01:21:46;8.30;99.90
59999;DHT22;45859;51.378;6.736;2022-11-11T01:24:11;8.30;99.90
59999;DHT22;45859;51.378;6.736;2022-11-11T01:26:37;8.30;99.90
59999;DHT22;45859;51.378;6.736;2022-11-11T01:29:03;8.40;99.90
59999;DHT22;45859;51.378;6.736;2022-11-11T01:31:28;8.70;99.90
59999;DHT22;45859;51.378;6.736;2022-11-11T01:33:54;8.70;99.90
59999;DHT22;45859;51.378;6.736;2022-11-11T01:36:23;8.30;99.90
59999;DHT22;45859;51.378;6.736;2022-11-11T01:38:51;8.30;99.90
59999;DHT22;45859;51.378;6.736;2022-11-11T01:41:19;8.30;99.90
59999;DHT22;45859;51.378;6.736;2022-11-11T01:46:38;8.30;99.90
59999;DHT22;45859;51.378;6.736;2022-11-11T01:57:03;8.30;99.90
59999;DHT22;45859;51.378;6.736;2022-11-11T01:59:32;8.30;99.90
59999;DHT22;45859;51.378;6.736;2022-11-11T02:01:58;8.30;99.90
59999;DHT22;45859;51.378;6.736;2022-11-11T02:04:27;8.30;99.90
59999;DHT22;45859;51.378;6.736;2022-11-11T02:07:12;8.70;99.90
59999;DHT22;45859;51.378;6.736;2022-11-11T02:09:40;8.30;99.90
59999;DHT22;45859;51.378;6.736;2022-11-11T02:12:08;8.30;99.90
59999;DHT22;45859;51.378;6.736;2022-11-11T02:14:56;8.20;99.90
59999;DHT22;45859;51.378;6.736;2022-11-11T02:17:23;8.30;99.90
59999;DHT22;45859;51.378;6.736;2022-11-11T02:19:55;8.30;99.90
59999;DHT22;45859;51.378;6.736;2022-11-11T02:22:45;8.30;99.90
59999;DHT22;45859;51.378;6.736;2022-11-11T02:25:16;8.30;99.90
59999;DHT22;45859;51.378;6.736;2022-11-11T02:27:45;8.30;99.90
59999;DHT22;45859;51.378;6.736;2022-11-11T02:30:12;8.30;99.90
59999;DHT22;45859;51.378;6.736;2022-11-11T02:32:42;8.30;99.90
59999;DHT22;45859;51.378;6.736;2022-11-11T02:37:45;8.30;99.90
59999;DHT22;45859;51.378;6.736;2022-11-11T02:40:26;8.30;99.90
59999;DHT22;45859;51.378;6.736;2022-11-11T02:42:53;8.20;99.90
59999;DHT22;45859;51.378;6.736;2022-11-11T02:45:19;8.20;99.90
59999;DHT22;45859;51.378;6.736;2022-11-11T02:47:45;8.60;99.90
59999;DHT22;45859;51.378;6.736;2022-11-11T02:50:11;8.50;99.90
59999;DHT22;45859;51.378;6.736;2022-11-11T02:52:36;8.10;99.90
59999;DHT22;45859;51.378;6.736;2022-11-11T02:55:02;8.00;99.90
59999;DHT22;45859;51.378;6.736;2022-11-11T02:57:28;8.00;99.90
59999;DHT22;45859;51.378;6.736;2022-11-11T02:59:54;8.00;99.90
59999;DHT22;45859;51.378;6.736;2022-11-11T03:02:20;8.00;99.90
59999;DHT22;45859;51.378;6.736;2022-11-11T03:04:46;8.20;99.90
59999;DHT22;45859;51.378;6.736;2022-11-11T03:07:11;8.40;99.90
59999;DHT22;45859;51.378;6.736;2022-11-11T03:09:37;8.00;99.90
59999;DHT22;45859;51.378;6.736;2022-11-11T03:12:03;8.20;99.90
59999;DHT22;45859;51.378;6.736;2022-11-11T03:14:28;8.00;99.90
59999;DHT22;45859;51.378;6.736;2022-11-11T03:16:54;8.30;99.90
59999;DHT22;45859;51.378;6.736;2022-11-11T03:19:38;8.00;99.90
59999;DHT22;45859;51.378;6.736;2022-11-11T03:22:04;8.00;99.90
59999;DHT22;45859;51.378;6.736;2022-11-11T03:24:30;7.90;99.90
59999;DHT22;45859;51.378;6.736;2022-11-11T03:27:14;8.10;99.90
59999;DHT22;45859;51.378;6.736;2022-11-11T03:29:40;7.90;99.90
59999;DHT22;45859;51.378;6.736;2022-11-11T03:32:07;7.90;99.90
59999;DHT22;45859;51.378;6.736;2022-11-11T03:34:33;7.90;99.90
59999;DHT22;45859;51.378;6.736;2022-11-11T03:36:59;7.90;99.90
59999;DHT22;45859;51.378;6.736;2022-11-11T03:39:43;7.80;99.90
59999;DHT22;45859;51.378;6.736;2022-11-11T03:42:08;7.80;99.90
59999;DHT22;45859;51.378;6.736;2022-11-11T03:44:34;7.80;99.90
59999;DHT22;45859;51.378;6.736;2022-11-11T03:47:00;8.10;99.90
59999;DHT22;45859;51.378;6.736;2022-11-11T03:49:25;7.80;99.90
59999;DHT22;45859;51.378;6.736;2022-11-11T03:51:51;7.70;99.90
59999;DHT22;45859;51.378;6.736;2022-11-11T03:54:16;7.70;99.90
59999;DHT22;45859;51.378;6.736;2022-11-11T03:56:42;7.60;99.90
59999;DHT22;45859;51.378;6.736;2022-11-11T03:59:08;7.60;99.90
59999;DHT22;45859;51.378;6.736;2022-11-11T04:01:33;7.50;99.90
59999;DHT22;45859;51.378;6.736;2022-11-11T04:04:17;7.50;99.90
59999;DHT22;45859;51.378;6.736;2022-11-11T04:07:01;7.50;99.90
59999;DHT22;45859;51.378;6.736;2022-11-11T04:09:46;7.50;99.90
59999;DHT22;45859;51.378;6.736;2022-11-11T04:12:30;7.40;99.90
59999;DHT22;45859;51.378;6.736;2022-11-11T04:15:18;7.70;99.90
59999;DHT22;45859;51.378;6.736;2022-11-11T04:18:02;7.30;99.90
59999;DHT22;45859;51.378;6.736;2022-11-11T04:20:27;7.30;99.90
59999;DHT22;45859;51.378;6.736;2022-11-11T04:23:12;7.30;99.90
59999;DHT22;45859;51.378;6.736;2022-11-11T04:25:37;7.30;99.90
59999;DHT22;45859;51.378;6.736;2022-11-11T04:28:17;7.30;99.90
59999;DHT22;45859;51.378;6.736;2022-11-11T04:31:01;7.30;99.90
59999;DHT22;45859;51.378;6.736;2022-11-11T04:33:27;7.40;99.90
59999;DHT22;45859;51.378;6.736;2022-11-11T04:35:53;7.40;99.90
59999;DHT22;45859;51.378;6.736;2022-11-11T04:38:18;7.40;99.90
59999;DHT22;45859;51.378;6.736;2022-11-11T04:41:03;7.40;99.90
59999;DHT22;45859;51.378;6.736;2022-11-11T04:43:29;7.40;99.90
59999;DHT22;45859;51.378;6.736;2022-11-11T04:45:59;7.40;99.90
59999;DHT22;45859;51.378;6.736;2022-11-11T04:48:25;7.30;99.90
59999;DHT22;45859;51.378;6.736;2022-11-11T04:50:51;7.40;99.90
59999;DHT22;45859;51.378;6.736;2022-11-11T04:53:17;8.40;99.90
59999;DHT22;45859;51.378;6.736;2022-11-11T04:55:43;7.50;99.90
59999;DHT22;45859;51.378;6.736;2022-11-11T04:58:33;7.50;99.90
59999;DHT22;45859;51.378;6.736;2022-11-11T05:01:00;7.50;99.90
59999;DHT22;45859;51.378;6.736;2022-11-11T05:03:26;7.40;99.90
59999;DHT22;45859;51.378;6.736;2022-11-11T05:05:57;7.50;99.90
59999;DHT22;45859;51.378;6.736;2022-11-11T05:08:43;7.50;99.90
59999;DHT22;45859;51.378;6.736;2022-11-11T05:11:29;7.50;99.90
59999;DHT22;45859;51.378;6.736;2022-11-11T05:13:57;7.70;99.90
59999;DHT22;45859;51.378;6.736;2022-11-11T05:16:44;8.30;99.90
59999;DHT22;45859;51.378;6.736;2022-11-11T05:19:29;7.70;99.90
59999;DHT22;45859;51.378;6.736;2022-11-11T05:22:40;7.50;99.90
59999;DHT22;45859;51.378;6.736;2022-11-11T05:25:08;7.50;99.90
59999;DHT22;45859;51.378;6.736;2022-11-11T05:27:56;8.70;99.90
59999;DHT22;45859;51.378;6.736;2022-11-11T05:30:23;7.50;99.90
59999;DHT22;45859;51.378;6.736;2022-11-11T05:32:49;7.50;99.90
59999;DHT22;45859;51.378;6.736;2022-11-11T05:35:16;7.50;99.90
59999;DHT22;45859;51.378;6.736;2022-11-11T05:37:42;7.50;99.90
59999;DHT22;45859;51.378;6.736;2022-11-11T05:40:09;7.50;99.90
59999;DHT22;45859;51.378;6.736;2022-11-11T05:42:34;7.50;99.90
59999;DHT22;45859;51.378;6.736;2022-11-11T05:45:00;7.50;99.90
59999;DHT22;45859;51.378;6.736;2022-11-11T05:47:26;7.60;99.90
59999;DHT22;45859;51.378;6.736;2022-11-11T05:49:51;8.30;99.90
59999;DHT22;45859;51.378;6.736;2022-11-11T05:52:17;7.60;99.90
59999;DHT22;45859;51.378;6.736;2022-11-11T05:54:44;7.50;99.90
59999;DHT22;45859;51.378;6.736;2022-11-11T05:57:10;7.50;99.90
59999;DHT22;45859;51.378;6.736;2022-11-11T05:59:35;7.50;99.90
59999;DHT22;45859;51.378;6.736;2022-11-11T06:02:01;7.50;99.90
59999;DHT22;45859;51.378;6.736;2022-11-11T06:04:27;7.50;99.90
59999;DHT22;45859;51.378;6.736;2022-11-11T06:06:53;7.50;99.90
59999;DHT22;45859;51.378;6.736;2022-11-11T06:09:19;7.50;99.90
59999;DHT22;45859;51.378;6.736;2022-11-11T06:11:45;7.60;99.90
59999;DHT22;45859;51.378;6.736;2022-11-11T06:14:10;8.10;99.90
59999;DHT22;45859;51.378;6.736;2022-11-11T06:16:36;7.50;99.90
59999;DHT22;45859;51.378;6.736;2022-11-11T06:19:02;7.50;99.90
59999;DHT22;45859;51.378;6.736;2022-11-11T06:21:29;7.90;99.90
59999;DHT22;45859;51.378;6.736;2022-11-11T06:23:56;7.50;99.90
59999;DHT22;45859;51.378;6.736;2022-11-11T06:26:21;7.40;99.90
59999;DHT22;45859;51.378;6.736;2022-11-11T06:28:51;7.40;99.90
59999;DHT22;45859;51.378;6.736;2022-11-11T06:31:23;7.40;99.90
59999;DHT22;45859;51.378;6.736;2022-11-11T06:33:48;7.40;99.90
59999;DHT22;45859;51.378;6.736;2022-11-11T06:36:16;7.40;99.90
59999;DHT22;45859;51.378;6.736;2022-11-11T06:38:42;7.40;99.90
59999;DHT22;45859;51.378;6.736;2022-11-11T06:41:09;7.60;99.90
59999;DHT22;45859;51.378;6.736;2022-11-11T06:43:40;7.40;99.90
59999;DHT22;45859;51.378;6.736;2022-11-11T06:46:06;7.40;99.90
59999;DHT22;45859;51.378;6.736;2022-11-11T06:48:32;7.40;99.90
59999;DHT22;45859;51.378;6.736;2022-11-11T06:51:03;7.40;99.90
59999;DHT22;45859;51.378;6.736;2022-11-11T06:53:29;7.40;99.90
59999;DHT22;45859;51.378;6.736;2022-11-11T06:55:55;7.50;99.90
59999;DHT22;45859;51.378;6.736;2022-11-11T06:58:21;7.50;99.90
59999;DHT22;45859;51.378;6.736;2022-11-11T07:00:48;7.50;99.90
59999;DHT22;45859;51.378;6.736;2022-11-11T07:03:16;7.50;99.90
59999;DHT22;45859;51.378;6.736;2022-11-11T07:05:42;8.20;99.90
59999;DHT22;45859;51.378;6.736;2022-11-11T07:08:16;7.60;99.90
59999;DHT22;45859;51.378;6.736;2022-11-11T07:10:47;7.60;99.90
59999;DHT22;45859;51.378;6.736;2022-11-11T07:13:14;7.70;99.90
59999;DHT22;45859;51.378;6.736;2022-11-11T07:15:41;7.70;99.90
59999;DHT22;45859;51.378;6.736;2022-11-11T07:18:07;7.70;99.90
59999;DHT22;45859;51.378;6.736;2022-11-11T07:20:33;8.00;99.90
59999;DHT22;45859;51.378;6.736;2022-11-11T07:22:59;7.80;99.90
59999;DHT22;45859;51.378;6.736;2022-11-11T07:25:25;7.80;99.90
59999;DHT22;45859;51.378;6.736;2022-11-11T07:27:51;7.90;99.90
59999;DHT22;45859;51.378;6.736;2022-11-11T07:30:16;7.90;99.90
59999;DHT22;45859;51.378;6.736;2022-11-11T07:32:45;8.00;99.90
59999;DHT22;45859;51.378;6.736;2022-11-11T07:35:11;8.10;99.90
59999;DHT22;45859;51.378;6.736;2022-11-11T07:37:39;8.10;99.90
59999;DHT22;45859;51.378;6.736;2022-11-11T07:40:05;8.20;99.90
59999;DHT22;45859;51.378;6.736;2022-11-11T07:42:31;8.20;99.90
59999;DHT22;45859;51.378;6.736;2022-11-11T07:44:57;8.20;99.90
59999;DHT22;45859;51.378;6.736;2022-11-11T07:47:22;8.20;99.90
59999;DHT22;45859;51.378;6.736;2022-11-11T07:49:48;8.80;99.90
59999;DHT22;45859;51.378;6.736;2022-11-11T07:52:13;8.40;99.90
59999;DHT22;45859;51.378;6.736;2022-11-11T07:54:39;8.50;99.90
59999;DHT22;45859;51.378;6.736;2022-11-11T07:57:04;8.80;99.90
59999;DHT22;45859;51.378;6.736;2022-11-11T07:59:30;8.40;99.90
59999;DHT22;45859;51.378;6.736;2022-11-11T08:01:56;9.20;99.90
59999;DHT22;45859;51.378;6.736;2022-11-11T08:04:21;8.50;99.90
59999;DHT22;45859;51.378;6.736;2022-11-11T08:06:47;8.50;99.90
59999;DHT22;45859;51.378;6.736;2022-11-11T08:09:12;8.90;99.90
59999;DHT22;45859;51.378;6.736;2022-11-11T08:11:38;8.70;99.90
59999;DHT22;45859;51.378;6.736;2022-11-11T08:14:22;9.00;99.90
59999;DHT22;45859;51.378;6.736;2022-11-11T08:16:47;8.90;99.90
59999;DHT22;45859;51.378;6.736;2022-11-11T08:19:13;8.90;99.90
59999;DHT22;45859;51.378;6.736;2022-11-11T08:21:38;9.20;99.90
59999;DHT22;45859;51.378;6.736;2022-11-11T08:24:04;9.00;99.90
59999;DHT22;45859;51.378;6.736;2022-11-11T08:26:30;9.10;99.90
59999;DHT22;45859;51.378;6.736;2022-11-11T08:28:56;9.20;99.90
59999;DHT22;45859;51.378;6.736;2022-11-11T08:31:22;9.30;99.90
59999;DHT22;45859;51.378;6.736;2022-11-11T08:33:48;9.30;99.90
59999;DHT22;45859;51.378;6.736;2022-11-11T08:36:14;9.30;99.90
59999;DHT22;45859;51.378;6.736;2022-11-11T08:38:40;9.50;99.90
59999;DHT22;45859;51.378;6.736;2022-11-11T08:41:06;9.60;99.90
59999;DHT22;45859;51.378;6.736;2022-11-11T08:43:32;9.50;99.90
59999;DHT22;45859;51.378;6.736;2022-11-11T08:46:02;9.60;99.90
59999;DHT22;45859;51.378;6.736;2022-11-11T08:48:30;9.70;99.90
59999;DHT22;45859;51.378;6.736;2022-11-11T08:50:57;9.80;99.90
59999;DHT22;45859;51.378;6.736;2022-11-11T08:53:23;9.90;99.90
59999;DHT22;45859;51.378;6.736;2022-11-11T08:55:49;10.00;99.90
59999;DHT22;45859;51.378;6.736;2022-11-11T08:58:14;10.00;99.90
59999;DHT22;45859;51.378;6.736;2022-11-11T09:00:40;10.20;99.90
59999;DHT22;45859;51.378;6.736;2022-11-11T09:03:08;10.20;99.90
59999;DHT22;45859;51.378;6.736;2022-11-11T09:05:37;10.30;99.90
59999;DHT22;45859;51.378;6.736;2022-11-11T09:08:05;10.30;99.90
59999;DHT22;45859;51.378;6.736;2022-11-11T09:10:32;10.30;99.90
59999;DHT22;45859;51.378;6.736;2022-11-11T09:12:58;10.40;99.90
59999;DHT22;45859;51.378;6.736;2022-11-11T09:15:25;10.50;99.90
59999;DHT22;45859;51.378;6.736;2022-11-11T09:17:51;10.60;99.90
59999;DHT22;45859;51.378;6.736;2022-11-11T09:20:17;10.60;99.90
59999;DHT22;45859;51.378;6.736;2022-11-11T09:22:44;10.90;99.90
59999;DHT22;45859;51.378;6.736;2022-11-11T09:25:10;10.70;99.90
59999;DHT22;45859;51.378;6.736;2022-11-11T09:27:36;10.70;99.90
59999;DHT22;45859;51.378;6.736;2022-11-11T09:30:03;10.70;99.90
59999;DHT22;45859;51.378;6.736;2022-11-11T09:32:28;11.10;99.90
59999;DHT22;45859;51.378;6.736;2022-11-11T09:34:54;10.90;99.90
59999;DHT22;45859;51.378;6.736;2022-11-11T09:37:20;11.00;99.90
59999;DHT22;45859;51.378;6.736;2022-11-11T09:39:46;11.10;99.90
59999;DHT22;45859;51.378;6.736;2022-11-11T09:49:57;11.30;99.90
59999;DHT22;45859;51.378;6.736;2022-11-11T09:52:35;11.30;99.90
59999;DHT22;45859;51.378;6.736;2022-11-11T09:57:44;11.50;99.90
59999;DHT22;45859;51.378;6.736;2022-11-11T10:00:23;11.50;99.90
59999;DHT22;45859;51.378;6.736;2022-11-11T10:02:53;11.60;99.90
59999;DHT22;45859;51.378;6.736;2022-11-11T10:05:39;11.70;99.90
59999;DHT22;45859;51.378;6.736;2022-11-11T10:08:20;11.80;99.90
59999;DHT22;45859;51.378;6.736;2022-11-11T10:10:48;12.00;99.90
59999;DHT22;45859;51.378;6.736;2022-11-11T10:13:19;12.30;99.90
59999;DHT22;45859;51.378;6.736;2022-11-11T10:18:48;12.40;99.90
59999;DHT22;45859;51.378;6.736;2022-11-11T10:24:09;12.50;99.90
59999;DHT22;45859;51.378;6.736;2022-11-11T10:26:40;12.40;99.90
59999;DHT22;45859;51.378;6.736;2022-11-11T10:29:16;12.50;99.90
59999;DHT22;45859;51.378;6.736;2022-11-11T10:31:43;12.50;99.90
59999;DHT22;45859;51.378;6.736;2022-11-11T10:34:10;12.60;99.90
59999;DHT22;45859;51.378;6.736;2022-11-11T10:36:50;12.70;99.90
59999;DHT22;45859;51.378;6.736;2022-11-11T10:40:06;12.60;99.90
59999;DHT22;45859;51.378;6.736;2022-11-11T10:42:16;12.70;99.90
59999;DHT22;45859;51.378;6.736;2022-11-11T10:44:42;12.70;99.90
59999;DHT22;45859;51.378;6.736;2022-11-11T10:58:42;13.10;99.90
59999;DHT22;45859;51.378;6.736;2022-11-11T11:01:14;12.90;99.90
59999;DHT22;45859;51.378;6.736;2022-11-11T11:03:44;13.00;99.90
59999;DHT22;45859;51.378;6.736;2022-11-11T11:06:24;13.10;99.90
59999;DHT22;45859;51.378;6.736;2022-11-11T11:09:01;13.10;99.90
59999;DHT22;45859;51.378;6.736;2022-11-11T11:11:51;13.10;99.90
59999;DHT22;45859;51.378;6.736;2022-11-11T11:14:23;13.10;99.90
59999;DHT22;45859;51.378;6.736;2022-11-11T11:16:51;13.20;99.90
59999;DHT22;45859;51.378;6.736;2022-11-11T11:19:24;13.20;99.90
59999;DHT22;45859;51.378;6.736;2022-11-11T11:21:58;13.20;99.90
59999;DHT22;45859;51.378;6.736;2022-11-11T11:24:26;13.40;99.90
59999;DHT22;45859;51.378;6.736;2022-11-11T11:26:54;13.60;99.90
59999;DHT22;45859;51.378;6.736;2022-11-11T11:29:31;13.40;99.90
59999;DHT22;45859;51.378;6.736;2022-11-11T11:37:15;13.50;99.90
59999;DHT22;45859;51.378;6.736;2022-11-11T11:39:41;13.60;99.90
59999;DHT22;45859;51.378;6.736;2022-11-11T11:42:07;13.50;99.90
59999;DHT22;45859;51.378;6.736;2022-11-11T11:44:38;13.60;99.90
59999;DHT22;45859;51.378;6.736;2022-11-11T11:52:41;13.40;99.90
59999;DHT22;45859;51.378;6.736;2022-11-11T11:55:18;13.40;99.90
59999;DHT22;45859;51.378;6.736;2022-11-11T12:00:55;13.30;99.90
59999;DHT22;45859;51.378;6.736;2022-11-11T12:11:31;13.20;99.90
59999;DHT22;45859;51.378;6.736;2022-11-11T12:19:21;13.20;99.90
59999;DHT22;45859;51.378;6.736;2022-11-11T12:30:06;13.10;99.90
59999;DHT22;45859;51.378;6.736;2022-11-11T12:38:17;13.10;99.90
59999;DHT22;45859;51.378;6.736;2022-11-11T12:43:50;13.10;99.90
59999;DHT22;45859;51.378;6.736;2022-11-11T12:46:28;13.10;99.90
59999;DHT22;45859;51.378;6.736;2022-11-11T12:58:34;13.20;99.90
59999;DHT22;45859;51.378;6.736;2022-11-11T13:01:17;13.20;99.90
59999;DHT22;45859;51.378;6.736;2022-11-11T13:06:47;13.20;99.90
59999;DHT22;45859;51.378;6.736;2022-11-11T13:17:19;13.30;99.90
59999;DHT22;45859;51.378;6.736;2022-11-11T13:19:50;13.50;99.90
59999;DHT22;45859;51.378;6.736;2022-11-11T13:22:20;13.30;99.90
59999;DHT22;45859;51.378;6.736;2022-11-11T13:24:48;13.30;99.90
59999;DHT22;45859;51.378;6.736;2022-11-11T13:33:06;13.30;99.90
59999;DHT22;45859;51.378;6.736;2022-11-11T13:35:49;13.30;99.90
59999;DHT22;45859;51.378;6.736;2022-11-11T13:38:46;13.30;99.90
59999;DHT22;45859;51.378;6.736;2022-11-11T13:41:28;13.30;99.90
59999;DHT22;45859;51.378;6.736;2022-11-11T13:43:58;13.50;99.90
59999;DHT22;45859;51.378;6.736;2022-11-11T13:46:44;13.40;99.90
59999;DHT22;45859;51.378;6.736;2022-11-11T13:49:43;13.40;99.90
59999;DHT22;45859;51.378;6.736;2022-11-11T13:52:28;13.40;99.90
59999;DHT22;45859;51.378;6.736;2022-11-11T13:55:07;13.50;99.90
59999;DHT22;45859;51.378;6.736;2022-11-11T13:57:49;13.40;99.90
59999;DHT22;45859;51.378;6.736;2022-11-11T14:02:47;13.40;99.90
59999;DHT22;45859;51.378;6.736;2022-11-11T14:05:32;13.40;99.90
59999;DHT22;45859;51.378;6.736;2022-11-11T14:07:58;13.40;99.90
59999;DHT22;45859;51.378;6.736;2022-11-11T14:12:53;13.50;99.90
59999;DHT22;45859;51.378;6.736;2022-11-11T14:15:52;13.50;99.90
59999;DHT22;45859;51.378;6.736;2022-11-11T14:20:45;13.50;99.90
59999;DHT22;45859;51.378;6.736;2022-11-11T14:25:50;13.60;99.90
59999;DHT22;45859;51.378;6.736;2022-11-11T14:30:45;13.60;99.90
59999;DHT22;45859;51.378;6.736;2022-11-11T14:41:46;13.40;99.90
59999;DHT22;45859;51.378;6.736;2022-11-11T14:47:17;13.40;99.90
59999;DHT22;45859;51.378;6.736;2022-11-11T14:49:47;13.30;99.90
59999;DHT22;45859;51.378;6.736;2022-11-11T14:52:39;13.30;99.90
59999;DHT22;45859;51.378;6.736;2022-11-11T14:55:35;13.30;99.90
59999;DHT22;45859;51.378;6.736;2022-11-11T14:58:12;13.20;99.90
59999;DHT22;45859;51.378;6.736;2022-11-11T15:00:51;13.20;99.90
59999;DHT22;45859;51.378;6.736;2022-11-11T15:03:28;13.10;99.90
59999;DHT22;45859;51.378;6.736;2022-11-11T15:06:05;13.20;99.90
59999;DHT22;45859;51.378;6.736;2022-11-11T15:08:55;13.10;99.90
59999;DHT22;45859;51.378;6.736;2022-11-11T15:19:29;12.70;99.90
59999;DHT22;45859;51.378;6.736;2022-11-11T15:30:13;12.30;99.90
59999;DHT22;45859;51.378;6.736;2022-11-11T15:35:47;11.90;99.90
59999;DHT22;45859;51.378;6.736;2022-11-11T15:38:16;11.60;99.90
59999;DHT22;45859;51.378;6.736;2022-11-11T15:40:54;11.40;99.90
59999;DHT22;45859;51.378;6.736;2022-11-11T15:43:25;11.30;99.90
59999;DHT22;45859;51.378;6.736;2022-11-11T15:46:02;11.00;99.90
59999;DHT22;45859;51.378;6.736;2022-11-11T15:48:43;10.90;99.90
59999;DHT22;45859;51.378;6.736;2022-11-11T15:53:49;10.70;99.90
59999;DHT22;45859;51.378;6.736;2022-11-11T15:56:31;10.50;99.90
59999;DHT22;45859;51.378;6.736;2022-11-11T15:58:57;10.40;99.90
59999;DHT22;45859;51.378;6.736;2022-11-11T16:01:26;10.40;99.90
59999;DHT22;45859;51.378;6.736;2022-11-11T16:03:53;10.40;99.90
59999;DHT22;45859;51.378;6.736;2022-11-11T16:06:19;10.30;99.90
59999;DHT22;45859;51.378;6.736;2022-11-11T16:08:47;10.20;99.90
59999;DHT22;45859;51.378;6.736;2022-11-11T16:11:15;10.00;99.90
59999;DHT22;45859;51.378;6.736;2022-11-11T16:13:47;9.90;99.90
59999;DHT22;45859;51.378;6.736;2022-11-11T16:16:27;9.90;99.90
59999;DHT22;45859;51.378;6.736;2022-11-11T16:19:30;9.80;99.90
59999;DHT22;45859;51.378;6.736;2022-11-11T16:21:53;9.80;99.90
59999;DHT22;45859;51.378;6.736;2022-11-11T16:24:30;9.80;99.90
59999;DHT22;45859;51.378;6.736;2022-11-11T16:26:56;9.70;99.90
59999;DHT22;45859;51.378;6.736;2022-11-11T16:29:26;9.70;99.90
59999;DHT22;45859;51.378;6.736;2022-11-11T16:31:54;9.60;99.90
59999;DHT22;45859;51.378;6.736;2022-11-11T16:37:02;9.50;99.90
59999;DHT22;45859;51.378;6.736;2022-11-11T16:39:28;9.40;99.90
59999;DHT22;45859;51.378;6.736;2022-11-11T16:41:56;9.40;99.90
59999;DHT22;45859;51.378;6.736;2022-11-11T16:55:43;9.00;99.90
59999;DHT22;45859;51.378;6.736;2022-11-11T16:58:16;8.90;99.90
59999;DHT22;45859;51.378;6.736;2022-11-11T17:00:43;8.90;99.90
59999;DHT22;45859;51.378;6.736;2022-11-11T17:06:00;8.80;99.90
59999;DHT22;45859;51.378;6.736;2022-11-11T17:08:37;8.70;99.90
59999;DHT22;45859;51.378;6.736;2022-11-11T17:11:05;8.60;99.90
59999;DHT22;45859;51.378;6.736;2022-11-11T17:13:32;8.50;99.90
59999;DHT22;45859;51.378;6.736;2022-11-11T17:16:00;8.90;99.90
59999;DHT22;45859;51.378;6.736;2022-11-11T17:18:33;8.50;99.90
59999;DHT22;45859;51.378;6.736;2022-11-11T17:21:00;8.50;99.90
59999;DHT22;45859;51.378;6.736;2022-11-11T17:23:26;8.40;99.90
59999;DHT22;45859;51.378;6.736;2022-11-11T17:25:56;8.30;99.90
59999;DHT22;45859;51.378;6.736;2022-11-11T17:28:25;8.20;99.90
59999;DHT22;45859;51.378;6.736;2022-11-11T17:30:50;8.20;99.90
59999;DHT22;45859;51.378;6.736;2022-11-11T17:33:16;8.20;99.90
59999;DHT22;45859;51.378;6.736;2022-11-11T17:35:51;8.20;99.90
59999;DHT22;45859;51.378;6.736;2022-11-11T17:38:17;8.20;99.90
59999;DHT22;45859;51.378;6.736;2022-11-11T17:40:47;8.40;99.90
59999;DHT22;45859;51.378;6.736;2022-11-11T17:43:13;8.10;99.90
59999;DHT22;45859;51.378;6.736;2022-11-11T17:45:39;8.10;99.90
59999;DHT22;45859;51.378;6.736;2022-11-11T17:48:05;8.00;99.90
59999;DHT22;45859;51.378;6.736;2022-11-11T17:50:31;7.80;99.90
59999;DHT22;45859;51.378;6.736;2022-11-11T17:52:57;7.80;99.90
59999;DHT22;45859;51.378;6.736;2022-11-11T17:55:23;7.70;99.90
59999;DHT22;45859;51.378;6.736;2022-11-11T17:57:49;7.70;99.90
59999;DHT22;45859;51.378;6.736;2022-11-11T18:00:15;7.60;99.90
59999;DHT22;45859;51.378;6.736;2022-11-11T18:02:41;7.60;99.90
59999;DHT22;45859;51.378;6.736;2022-11-11T18:05:07;7.60;99.90
59999;DHT22;45859;51.378;6.736;2022-11-11T18:07:34;7.50;99.90
59999;DHT22;45859;51.378;6.736;2022-11-11T18:09:59;7.50;99.90
59999;DHT22;45859;51.378;6.736;2022-11-11T18:12:27;7.40;99.90
59999;DHT22;45859;51.378;6.736;2022-11-11T18:14:53;7.40;99.90
59999;DHT22;45859;51.378;6.736;2022-11-11T18:17:19;7.40;99.90
59999;DHT22;45859;51.378;6.736;2022-11-11T18:19:45;7.40;99.90
59999;DHT22;45859;51.378;6.736;2022-11-11T18:22:11;7.40;99.90
59999;DHT22;45859;51.378;6.736;2022-11-11T18:24:36;7.40;99.90
59999;DHT22;45859;51.378;6.736;2022-11-11T18:27:02;7.30;99.90
59999;DHT22;45859;51.378;6.736;2022-11-11T18:29:28;7.30;99.90
59999;DHT22;45859;51.378;6.736;2022-11-11T18:31:55;7.20;99.90
59999;DHT22;45859;51.378;6.736;2022-11-11T18:34:21;7.20;99.90
59999;DHT22;45859;51.378;6.736;2022-11-11T18:36:47;7.10;99.90
59999;DHT22;45859;51.378;6.736;2022-11-11T18:39:13;7.20;99.90
59999;DHT22;45859;51.378;6.736;2022-11-11T18:41:38;7.20;99.90
59999;DHT22;45859;51.378;6.736;2022-11-11T18:44:04;7.20;99.90
59999;DHT22;45859;51.378;6.736;2022-11-11T18:46:30;7.20;99.90
59999;DHT22;45859;51.378;6.736;2022-11-11T18:49:00;7.10;99.90
59999;DHT22;45859;51.378;6.736;2022-11-11T18:51:28;7.10;99.90
59999;DHT22;45859;51.378;6.736;2022-11-11T18:53:56;7.30;99.90
59999;DHT22;45859;51.378;6.736;2022-11-11T18:56:24;7.60;99.90